sensor_id;sensor_type;location;lat;lon;timestamp;P1;durP1;ratioP1;P2;durP2;ratioP2
25984;SDS011;66753;53.848;10.658;2023-04-24T00:03:57;3.72;;;2.22;;
25984;SDS011;66753;53.848;10.658;2023-04-24T00:19:00;3.73;;;2.13;;
25984;SDS011;66753;53.848;10.658;2023-04-24T00:34:01;3.63;;;2.13;;
25984;SDS011;66753;53.848;10.658;2023-04-24T00:49:02;4.40;;;2.30;;
25984;SDS011;66753;53.848;10.658;2023-04-24T01:04:03;3.60;;;1.87;;
25984;SDS011;66753;53.848;10.658;2023-04-24T01:19:05;5.13;;;2.60;;
25984;SDS011;66753;53.848;10.658;2023-04-24T01:34:06;5.27;;;2.80;;
25984;SDS011;66753;53.848;10.658;2023-04-24T01:49:08;4.67;;;2.23;;
25984;SDS011;66753;53.848;10.658;2023-04-24T02:04:08;4.45;;;2.47;;
25984;SDS011;66753;53.848;10.658;2023-04-24T02:19:09;4.93;;;2.10;;
25984;SDS011;66753;53.848;10.658;2023-04-24T02:34:10;4.93;;;2.30;;
25984;SDS011;66753;53.848;10.658;2023-04-24T02:49:10;4.57;;;2.38;;
25984;SDS011;66753;53.848;10.658;2023-04-24T03:04:12;5.03;;;2.70;;
25984;SDS011;66753;53.848;10.658;2023-04-24T03:19:12;5.15;;;2.60;;
25984;SDS011;66753;53.848;10.658;2023-04-24T03:34:12;4.55;;;2.10;;
25984;SDS011;66753;53.848;10.658;2023-04-24T03:49:13;4.15;;;2.10;;
25984;SDS011;66753;53.848;10.658;2023-04-24T04:04:13;4.43;;;1.83;;
25984;SDS011;66753;53.848;10.658;2023-04-24T04:19:14;3.17;;;1.20;;
25984;SDS011;66753;53.848;10.658;2023-04-24T04:34:14;4.10;;;1.67;;
25984;SDS011;66753;53.848;10.658;2023-04-24T04:49:17;2.42;;;1.20;;
25984;SDS011;66753;53.848;10.658;2023-04-24T05:04:21;1.83;;;1.03;;
25984;SDS011;66753;53.848;10.658;2023-04-24T05:19:22;2.40;;;0.98;;
25984;SDS011;66753;53.848;10.658;2023-04-24T05:34:22;2.05;;;1.33;;
25984;SDS011;66753;53.848;10.658;2023-04-24T05:49:22;1.83;;;1.00;;
25984;SDS011;66753;53.848;10.658;2023-04-24T06:04:23;2.63;;;0.98;;
25984;SDS011;66753;53.848;10.658;2023-04-24T06:19:23;1.10;;;0.75;;
25984;SDS011;66753;53.848;10.658;2023-04-24T06:34:24;1.15;;;0.70;;
25984;SDS011;66753;53.848;10.658;2023-04-24T06:49:24;1.45;;;0.70;;
25984;SDS011;66753;53.848;10.658;2023-04-24T07:04:25;1.60;;;0.60;;
25984;SDS011;66753;53.848;10.658;2023-04-24T07:19:25;2.00;;;0.82;;
25984;SDS011;66753;53.848;10.658;2023-04-24T07:34:26;1.43;;;0.77;;
25984;SDS011;66753;53.848;10.658;2023-04-24T07:49:26;1.98;;;0.80;;
25984;SDS011;66753;53.848;10.658;2023-04-24T08:04:28;1.87;;;0.80;;
25984;SDS011;66753;53.848;10.658;2023-04-24T08:19:28;1.33;;;0.73;;
25984;SDS011;66753;53.848;10.658;2023-04-24T08:34:29;2.20;;;1.10;;
25984;SDS011;66753;53.848;10.658;2023-04-24T08:49:29;2.25;;;0.85;;
25984;SDS011;66753;53.848;10.658;2023-04-24T09:04:30;1.67;;;0.73;;
25984;SDS011;66753;53.848;10.658;2023-04-24T09:19:32;2.20;;;1.10;;
25984;SDS011;66753;53.848;10.658;2023-04-24T09:34:32;2.42;;;1.20;;
25984;SDS011;66753;53.848;10.658;2023-04-24T09:49:33;2.85;;;1.25;;
25984;SDS011;66753;53.848;10.658;2023-04-24T10:04:35;3.73;;;2.10;;
25984;SDS011;66753;53.848;10.658;2023-04-24T10:19:35;4.20;;;2.63;;
25984;SDS011;66753;53.848;10.658;2023-04-24T10:34:37;5.17;;;2.70;;
25984;SDS011;66753;53.848;10.658;2023-04-24T10:49:38;4.88;;;2.53;;
25984;SDS011;66753;53.848;10.658;2023-04-24T11:04:38;3.63;;;1.80;;
25984;SDS011;66753;53.848;10.658;2023-04-24T11:19:39;4.68;;;2.53;;
25984;SDS011;66753;53.848;10.658;2023-04-24T11:34:40;3.50;;;2.30;;
25984;SDS011;66753;53.848;10.658;2023-04-24T11:49:40;5.45;;;3.35;;
25984;SDS011;66753;53.848;10.658;2023-04-24T12:04:41;5.65;;;3.22;;
25984;SDS011;66753;53.848;10.658;2023-04-24T12:19:47;7.88;;;3.80;;
25984;SDS011;66753;53.848;10.658;2023-04-24T12:34:51;5.73;;;3.50;;
25984;SDS011;66753;53.848;10.658;2023-04-24T12:49:52;6.20;;;4.00;;
25984;SDS011;66753;53.848;10.658;2023-04-24T13:04:53;6.35;;;3.90;;
25984;SDS011;66753;53.848;10.658;2023-04-24T13:19:54;6.05;;;3.90;;
25984;SDS011;66753;53.848;10.658;2023-04-24T13:34:54;5.93;;;3.83;;
25984;SDS011;66753;53.848;10.658;2023-04-24T13:49:56;5.30;;;3.23;;
25984;SDS011;66753;53.848;10.658;2023-04-24T14:04:56;4.20;;;2.85;;
25984;SDS011;66753;53.848;10.658;2023-04-24T14:19:57;3.47;;;2.10;;
25984;SDS011;66753;53.848;10.658;2023-04-24T14:34:59;4.33;;;2.87;;
25984;SDS011;66753;53.848;10.658;2023-04-24T14:50:00;4.50;;;2.65;;
25984;SDS011;66753;53.848;10.658;2023-04-24T15:05:00;4.25;;;2.55;;
25984;SDS011;66753;53.848;10.658;2023-04-24T15:20:01;3.88;;;2.00;;
25984;SDS011;66753;53.848;10.658;2023-04-24T15:35:03;4.07;;;2.17;;
25984;SDS011;66753;53.848;10.658;2023-04-24T15:50:04;4.32;;;2.50;;
25984;SDS011;66753;53.848;10.658;2023-04-24T16:05:05;2.50;;;1.40;;
25984;SDS011;66753;53.848;10.658;2023-04-24T16:20:07;5.93;;;2.90;;
25984;SDS011;66753;53.848;10.658;2023-04-24T16:35:07;4.95;;;2.75;;
25984;SDS011;66753;53.848;10.658;2023-04-24T16:50:09;3.13;;;1.27;;
25984;SDS011;66753;53.848;10.658;2023-04-24T17:05:10;4.37;;;1.50;;
25984;SDS011;66753;53.848;10.658;2023-04-24T17:20:11;4.68;;;2.83;;
25984;SDS011;66753;53.848;10.658;2023-04-24T17:35:13;3.23;;;1.53;;
25984;SDS011;66753;53.848;10.658;2023-04-24T17:50:13;2.45;;;1.27;;
25984;SDS011;66753;53.848;10.658;2023-04-24T18:05:14;3.17;;;1.60;;
25984;SDS011;66753;53.848;10.658;2023-04-24T18:20:16;4.25;;;1.95;;
25984;SDS011;66753;53.848;10.658;2023-04-24T18:35:20;4.17;;;2.30;;
25984;SDS011;66753;53.848;10.658;2023-04-24T18:50:21;5.27;;;2.70;;
25984;SDS011;66753;53.848;10.658;2023-04-24T19:05:22;4.35;;;2.10;;
25984;SDS011;66753;53.848;10.658;2023-04-24T19:20:22;5.68;;;2.90;;
25984;SDS011;66753;53.848;10.658;2023-04-24T19:35:27;4.90;;;2.53;;
25984;SDS011;66753;53.848;10.658;2023-04-24T19:50:27;4.68;;;2.35;;
25984;SDS011;66753;53.848;10.658;2023-04-24T20:05:28;4.85;;;1.95;;
25984;SDS011;66753;53.848;10.658;2023-04-24T20:20:28;5.03;;;1.75;;
25984;SDS011;66753;53.848;10.658;2023-04-24T20:35:29;3.97;;;1.33;;
25984;SDS011;66753;53.848;10.658;2023-04-24T20:50:29;3.47;;;1.48;;
25984;SDS011;66753;53.848;10.658;2023-04-24T21:05:32;2.57;;;1.13;;
25984;SDS011;66753;53.848;10.658;2023-04-24T21:20:32;4.35;;;1.50;;
25984;SDS011;66753;53.848;10.658;2023-04-24T21:35:33;3.92;;;1.20;;
25984;SDS011;66753;53.848;10.658;2023-04-24T21:50:34;4.77;;;1.80;;
25984;SDS011;66753;53.848;10.658;2023-04-24T22:05:34;3.22;;;1.58;;
25984;SDS011;66753;53.848;10.658;2023-04-24T22:20:35;4.20;;;1.75;;
25984;SDS011;66753;53.848;10.658;2023-04-24T22:35:35;4.43;;;2.10;;
25984;SDS011;66753;53.848;10.658;2023-04-24T22:50:36;4.27;;;1.90;;
25984;SDS011;66753;53.848;10.658;2023-04-24T23:05:37;6.83;;;2.50;;
25984;SDS011;66753;53.848;10.658;2023-04-24T23:20:38;6.40;;;2.78;;
25984;SDS011;66753;53.848;10.658;2023-04-24T23:35:38;5.47;;;2.67;;
25984;SDS011;66753;53.848;10.658;2023-04-24T23:50:39;5.90;;;2.35;;
